createdAt,value
2023-05-19T00:00:59.369Z,591.04
2023-05-19T00:02:14.300Z,585.32
2023-05-19T00:03:29.294Z,606.15
2023-05-19T00:04:44.207Z,605.04
2023-05-19T00:05:59.248Z,603.94
2023-05-19T00:07:14.167Z,623.79
2023-05-19T00:08:29.105Z,640.63
2023-05-19T00:09:44.104Z,641.87
2023-05-19T00:10:59.026Z,649.40
2023-05-19T00:12:13.972Z,644.99
2023-05-19T00:13:28.930Z,646.24
2023-05-19T00:14:43.861Z,662.35
2023-05-19T00:15:58.819Z,661.69
2023-05-19T00:17:13.786Z,656.46
2023-05-19T00:18:28.706Z,644.36
2023-05-19T00:19:43.669Z,641.87
2023-05-19T00:20:58.659Z,640.63
2023-05-19T00:22:13.602Z,655.81
2023-05-19T00:23:28.549Z,661.69
2023-05-19T00:24:43.535Z,651.31
2023-05-19T00:25:58.446Z,650.03
2023-05-19T00:27:13.381Z,654.52
2023-05-19T00:28:28.373Z,664.34
2023-05-19T00:29:43.312Z,666.33
2023-05-19T00:30:58.245Z,655.81
2023-05-19T00:32:13.365Z,646.24
2023-05-19T00:33:28.399Z,632.10
2023-05-19T00:34:43.363Z,629.70
2023-05-19T00:35:58.313Z,624.96
2023-05-19T00:37:13.241Z,620.87
2023-05-19T00:38:28.184Z,622.62
2023-05-19T00:39:43.132Z,626.14
2023-05-19T00:40:58.085Z,610.60
2023-05-19T00:42:13.034Z,610.04
2023-05-19T00:43:27.976Z,593.69
2023-05-19T00:44:42.970Z,590.52
2023-05-19T00:45:57.918Z,594.22
2023-05-19T00:47:12.887Z,611.16
2023-05-19T00:48:27.830Z,616.84
2023-05-19T00:49:42.776Z,611.73
2023-05-19T00:50:57.723Z,610.04
2023-05-19T00:52:12.656Z,604.49
2023-05-19T00:53:27.625Z,605.59
2023-05-19T00:54:42.547Z,602.30
2023-05-19T00:55:57.503Z,600.66
2023-05-19T00:57:12.455Z,602.84
2023-05-19T00:58:27.406Z,606.70
2023-05-19T00:59:42.348Z,606.70
2023-05-19T01:00:57.306Z,615.12
2023-05-19T01:02:12.245Z,628.51
2023-05-19T01:03:27.305Z,629.10
2023-05-19T01:04:42.311Z,627.92
2023-05-19T01:05:57.267Z,627.32
2023-05-19T01:07:12.255Z,627.92
2023-05-19T01:08:27.208Z,633.30
2023-05-19T01:09:42.183Z,633.91
2023-05-19T01:10:57.151Z,612.29
2023-05-19T01:12:12.118Z,605.04
2023-05-19T01:13:27.109Z,617.99
2023-05-19T01:14:42.071Z,622.04
2023-05-19T01:15:57.081Z,621.46
2023-05-19T01:17:12.002Z,624.96
2023-05-19T01:18:26.945Z,631.50
2023-05-19T01:19:41.933Z,636.34
2023-05-19T01:20:56.841Z,632.10
2023-05-19T01:22:11.797Z,641.25
2023-05-19T01:23:26.794Z,643.74
2023-05-19T01:24:41.713Z,629.10
2023-05-19T01:25:56.654Z,630.30
2023-05-19T01:27:11.617Z,632.70
2023-05-19T01:28:26.594Z,636.95
2023-05-19T01:29:41.535Z,632.70
2023-05-19T01:30:56.538Z,622.62
2023-05-19T01:32:11.533Z,616.84
2023-05-19T01:33:26.457Z,600.12
2023-05-19T01:34:41.454Z,596.35
2023-05-19T01:35:56.378Z,605.04
2023-05-19T01:37:11.319Z,601.21
2023-05-19T01:38:26.302Z,605.04
2023-05-19T01:39:41.228Z,615.70
2023-05-19T01:40:56.170Z,626.14
2023-05-19T01:42:11.126Z,614.56
2023-05-19T01:43:26.092Z,612.29
2023-05-19T01:44:41.044Z,593.16
2023-05-19T01:45:55.997Z,582.24
2023-05-19T01:47:10.945Z,572.70
2023-05-19T01:48:25.878Z,572.21
2023-05-19T01:49:40.817Z,580.71
2023-05-19T01:50:55.773Z,578.18
2023-05-19T01:52:10.713Z,583.26
2023-05-19T01:53:25.675Z,581.73
2023-05-19T01:54:40.620Z,562.04
2023-05-19T01:55:55.567Z,558.27
2023-05-19T01:57:10.498Z,555.46
2023-05-19T01:58:25.460Z,552.69
2023-05-19T01:59:40.400Z,558.27
2023-05-19T02:00:55.386Z,559.21
2023-05-19T02:02:11.216Z,555.00
2023-05-19T02:03:26.166Z,552.23
2023-05-19T02:04:41.120Z,544.98
2023-05-19T02:05:56.071Z,535.75
2023-05-19T02:07:11.009Z,533.17
2023-05-19T02:08:25.958Z,521.46
2023-05-19T02:09:40.916Z,516.59
2023-05-19T02:10:55.872Z,507.90
2023-05-19T02:12:10.811Z,499.12
2023-05-19T02:13:25.769Z,487.76
2023-05-19T02:14:40.733Z,488.84
2023-05-19T02:15:55.710Z,488.12
2023-05-19T02:17:10.619Z,495.77
2023-05-19T02:18:25.582Z,495.40
2023-05-19T02:19:40.541Z,492.46
2023-05-19T02:20:55.474Z,499.88
2023-05-19T02:22:10.439Z,496.51
2023-05-19T02:23:25.391Z,493.93
2023-05-19T02:24:40.371Z,493.93
2023-05-19T02:25:55.346Z,503.28
2023-05-19T02:27:10.291Z,499.88
2023-05-19T02:28:25.234Z,496.14
2023-05-19T02:29:40.192Z,492.83
2023-05-19T02:30:55.172Z,495.77
2023-05-19T02:32:10.183Z,495.77
2023-05-19T02:33:25.119Z,495.77
2023-05-19T02:34:40.080Z,499.12
2023-05-19T02:35:55.022Z,502.52
2023-05-19T02:37:09.967Z,495.03
2023-05-19T02:38:24.995Z,490.28
2023-05-19T02:39:39.950Z,490.28
2023-05-19T02:40:54.898Z,490.28
2023-05-19T02:42:09.842Z,498.00
2023-05-19T02:43:25.052Z,504.81
2023-05-19T02:44:39.996Z,502.52
2023-05-19T02:45:54.994Z,488.48
2023-05-19T02:47:09.937Z,491.74
2023-05-19T02:48:24.884Z,506.74
2023-05-19T02:49:39.835Z,498.00
2023-05-19T02:50:54.792Z,502.14
2023-05-19T02:52:09.727Z,491.74
2023-05-19T02:53:24.707Z,497.26
2023-05-19T02:54:39.645Z,497.26
2023-05-19T02:55:54.584Z,503.28
2023-05-19T02:57:09.530Z,501.39
2023-05-19T02:58:24.562Z,506.74
2023-05-19T02:59:39.425Z,504.81
2023-05-19T03:00:54.371Z,501.76
2023-05-19T03:02:09.347Z,490.28
2023-05-19T03:03:24.515Z,489.56
2023-05-19T03:04:39.506Z,478.97
2023-05-19T03:05:54.398Z,467.18
2023-05-19T03:07:09.328Z,473.51
2023-05-19T03:08:24.218Z,474.52
2023-05-19T03:09:39.150Z,469.83
2023-05-19T03:10:54.037Z,462.31
2023-05-19T03:12:08.930Z,459.43
2023-05-19T03:13:23.829Z,451.93
2023-05-19T03:14:38.818Z,444.07
2023-05-19T03:15:53.701Z,442.01
2023-05-19T03:17:08.678Z,437.93
2023-05-19T03:18:23.609Z,437.93
2023-05-19T03:19:38.514Z,437.93
2023-05-19T03:20:53.419Z,445.27
2023-05-19T03:22:08.354Z,446.16
2023-05-19T03:23:23.237Z,436.77
2023-05-19T03:24:38.120Z,435.92
2023-05-19T03:25:53.008Z,439.67
2023-05-19T03:27:07.924Z,440.83
2023-05-19T03:28:22.818Z,444.67
2023-05-19T03:29:37.715Z,445.86
2023-05-19T03:30:52.606Z,450.09
2023-05-19T03:32:07.544Z,460.39
2023-05-19T03:33:22.620Z,465.87
2023-05-19T03:34:37.629Z,458.48
2023-05-19T03:35:52.519Z,470.16
2023-05-19T03:37:07.411Z,467.51
2023-05-19T03:38:22.307Z,471.49
2023-05-19T03:39:37.212Z,472.16
2023-05-19T03:40:52.107Z,487.76
2023-05-19T03:42:07.010Z,482.10
2023-05-19T03:43:21.885Z,487.76
2023-05-19T03:44:36.776Z,485.62
2023-05-19T03:45:51.754Z,484.21
2023-05-19T03:47:06.598Z,489.56
2023-05-19T03:48:21.537Z,496.51
2023-05-19T03:49:36.389Z,505.97
2023-05-19T03:50:51.275Z,504.43
2023-05-19T03:52:06.174Z,491.01
2023-05-19T03:53:21.067Z,483.86
2023-05-19T03:54:35.957Z,471.16
2023-05-19T03:55:50.850Z,460.70
2023-05-19T03:57:05.738Z,462.95
2023-05-19T03:58:20.643Z,467.84
2023-05-19T03:59:35.567Z,467.51
2023-05-19T04:00:50.414Z,462.63
2023-05-19T04:02:05.608Z,450.09
2023-05-19T04:03:20.624Z,440.25
2023-05-19T04:04:35.760Z,433.64
2023-05-19T04:05:50.698Z,428.60
2023-05-19T04:07:05.612Z,418.61
2023-05-19T04:08:20.497Z,403.12
2023-05-19T04:09:35.596Z,398.28
2023-05-19T04:10:50.528Z,390.79
2023-05-19T04:12:05.421Z,386.02
2023-05-19T04:13:20.324Z,364.54
2023-05-19T04:14:35.318Z,355.81
2023-05-19T04:15:50.232Z,352.74
2023-05-19T04:17:05.119Z,339.90
2023-05-19T04:18:20.014Z,331.29
2023-05-19T04:19:34.948Z,332.30
2023-05-19T04:20:49.847Z,335.03
2023-05-19T04:22:04.779Z,335.37
2023-05-19T04:23:19.660Z,339.20
2023-05-19T04:24:34.535Z,344.93
2023-05-19T04:25:49.437Z,341.68
2023-05-19T04:27:04.363Z,349.35
2023-05-19T04:28:19.248Z,350.10
2023-05-19T04:29:34.163Z,354.27
2023-05-19T04:30:49.059Z,357.76
2023-05-19T04:32:03.937Z,366.18
2023-05-19T04:33:18.831Z,358.94
2023-05-19T04:34:33.744Z,366.59
2023-05-19T04:35:48.638Z,371.17
2023-05-19T04:37:03.526Z,370.33
2023-05-19T04:38:18.424Z,375.86
2023-05-19T04:39:33.335Z,382.90
2023-05-19T04:40:48.218Z,387.59
2023-05-19T04:42:03.123Z,392.63
2023-05-19T04:43:18.140Z,389.87
2023-05-19T04:44:33.004Z,388.95
2023-05-19T04:45:47.924Z,393.10
2023-05-19T04:47:02.927Z,399.48
2023-05-19T04:48:17.829Z,410.34
2023-05-19T04:49:32.719Z,421.27
2023-05-19T04:50:47.613Z,417.03
2023-05-19T04:52:02.632Z,425.31
2023-05-19T04:53:17.483Z,416.77
2023-05-19T04:54:32.428Z,422.87
2023-05-19T04:55:47.277Z,424.49
2023-05-19T04:57:02.191Z,435.92
2023-05-19T04:58:17.097Z,430.55
2023-05-19T04:59:31.964Z,428.60
2023-05-19T05:00:46.937Z,451.62
2023-05-19T05:02:01.904Z,465.55
2023-05-19T05:03:16.886Z,477.94
2023-05-19T05:04:31.770Z,484.56
2023-05-19T05:05:46.648Z,480.36
2023-05-19T05:07:01.568Z,473.85
2023-05-19T05:08:16.499Z,478.63
2023-05-19T05:09:31.383Z,471.49
2023-05-19T05:10:46.281Z,466.86
2023-05-19T05:12:01.176Z,460.70
2023-05-19T05:13:16.056Z,462.31
2023-05-19T05:14:30.964Z,463.27
2023-05-19T05:15:45.873Z,468.17
2023-05-19T05:17:00.761Z,478.28
2023-05-19T05:18:15.718Z,484.21
2023-05-19T05:19:30.671Z,490.28
2023-05-19T05:20:45.725Z,513.79
2023-05-19T05:22:00.652Z,517.80
2023-05-19T05:23:15.514Z,520.64
2023-05-19T05:24:30.393Z,512.60
2023-05-19T05:25:45.298Z,516.19
2023-05-19T05:27:00.209Z,528.93
2023-05-19T05:28:15.271Z,539.23
2023-05-19T05:29:30.203Z,540.55
2023-05-19T05:30:45.103Z,546.78
2023-05-19T05:32:00.078Z,551.77
2023-05-19T05:33:15.147Z,540.11
2023-05-19T05:34:30.044Z,541.43
2023-05-19T05:35:44.969Z,535.75
2023-05-19T05:36:59.853Z,528.51
2023-05-19T05:38:14.751Z,525.58
2023-05-19T05:39:29.635Z,524.34
2023-05-19T05:40:44.534Z,537.49
2023-05-19T05:41:59.419Z,553.15
2023-05-19T05:43:14.323Z,569.76
2023-05-19T05:44:29.218Z,583.77
2023-05-19T05:45:44.212Z,590.00
2023-05-19T05:46:59.125Z,596.35
2023-05-19T05:48:14.084Z,585.83
2023-05-19T05:49:29.157Z,588.95
2023-05-19T05:50:44.045Z,599.04
2023-05-19T05:52:05.641Z,605.04
2023-05-19T05:53:18.768Z,633.30
2023-05-19T05:54:33.677Z,653.23
2023-05-19T05:55:48.568Z,667.00
2023-05-19T05:57:03.462Z,651.31
2023-05-19T05:58:18.347Z,651.95
2023-05-19T05:59:33.245Z,666.33
2023-05-19T06:00:48.170Z,682.77
2023-05-19T06:02:03.127Z,675.14
2023-05-19T06:03:18.083Z,691.30
2023-05-19T06:04:33.008Z,707.49
2023-05-19T06:05:47.937Z,719.76
2023-05-19T06:07:02.789Z,712.81
2023-05-19T06:08:17.677Z,703.00
2023-05-19T06:09:32.865Z,708.25
2023-05-19T06:10:47.868Z,701.52
2023-05-19T06:12:02.785Z,699.30
2023-05-19T06:13:17.703Z,727.64
2023-05-19T06:14:32.621Z,732.45
2023-05-19T06:15:47.533Z,713.57
2023-05-19T06:17:02.442Z,692.02
2023-05-19T06:18:17.355Z,688.43
2023-05-19T06:19:32.243Z,677.89
2023-05-19T06:20:47.132Z,675.14
2023-05-19T06:22:02.033Z,668.34
2023-05-19T06:23:16.923Z,654.52
2023-05-19T06:24:31.841Z,636.95
2023-05-19T06:25:46.735Z,615.12
2023-05-19T06:27:01.614Z,600.12
2023-05-19T06:28:16.548Z,592.63
2023-05-19T06:29:31.510Z,581.22
2023-05-19T06:30:46.407Z,577.18
2023-05-19T06:32:01.303Z,576.18
2023-05-19T06:33:16.176Z,584.29
2023-05-19T06:34:31.089Z,601.21
2023-05-19T06:35:45.982Z,623.20
2023-05-19T06:37:00.873Z,636.34
2023-05-19T06:38:15.818Z,637.56
2023-05-19T06:39:30.680Z,622.04
2023-05-19T06:40:45.634Z,640.63
2023-05-19T06:42:00.544Z,667.67
2023-05-19T06:43:15.418Z,703.74
2023-05-19T06:44:30.308Z,711.28
2023-05-19T06:45:45.192Z,747.61
2023-05-19T06:47:00.140Z,735.70
2023-05-19T06:48:15.093Z,738.97
2023-05-19T06:49:30.021Z,758.27
2023-05-19T06:50:44.934Z,787.91
2023-05-19T06:51:59.863Z,795.93
2023-05-19T06:53:14.750Z,784.66
2023-05-19T06:54:29.638Z,775.96
2023-05-19T06:55:57.530Z,760.43
2023-05-19T06:57:04.363Z,754.82
2023-05-19T06:58:19.323Z,760.87
2023-05-19T06:59:34.190Z,788.38
2023-05-19T07:00:49.083Z,786.52
2023-05-19T07:02:04.035Z,794.03
2023-05-19T07:03:19.018Z,835.43
2023-05-19T07:04:34.017Z,832.29
2023-05-19T07:05:48.905Z,848.21
2023-05-19T07:07:03.808Z,883.13
2023-05-19T07:08:18.712Z,910.34
2023-05-19T07:09:33.622Z,920.41
2023-05-19T07:10:48.494Z,943.93
2023-05-19T07:12:03.408Z,993.28
2023-05-19T07:13:18.308Z,1004.53
2023-05-19T07:14:33.208Z,1001.51
2023-05-19T07:15:48.116Z,1004.53
2023-05-19T07:17:03.040Z,1010.64
2023-05-19T07:18:17.924Z,1038.25
2023-05-19T07:19:32.847Z,1074.31
2023-05-19T07:20:47.747Z,1092.85
2023-05-19T07:22:02.644Z,1115.77
2023-05-19T07:23:17.624Z,1162.59
2023-05-19T07:24:32.539Z,1199.28
2023-05-19T07:25:47.427Z,1221.30
2023-05-19T07:27:02.317Z,1250.00
2023-05-19T07:28:17.210Z,1254.72
2023-05-19T07:29:32.162Z,1281.31
2023-05-19T07:30:47.075Z,1307.77
2023-05-19T07:32:01.982Z,1291.26
2023-05-19T07:33:17.080Z,1257.09
2023-05-19T07:34:31.969Z,1264.26
2023-05-19T07:35:46.862Z,1269.08
2023-05-19T07:37:01.744Z,1270.30
2023-05-19T07:38:16.637Z,1300.10
2023-05-19T07:39:31.531Z,1315.53
2023-05-19T07:40:46.430Z,1326.02
2023-05-19T07:42:01.321Z,1307.77
2023-05-19T07:43:16.208Z,1331.33
2023-05-19T07:44:31.162Z,1340.72
2023-05-19T07:45:46.072Z,1355.76
2023-05-19T07:47:00.998Z,1368.31
2023-05-19T07:48:15.975Z,1397.06
2023-05-19T07:49:30.903Z,1398.53
2023-05-19T07:50:45.811Z,1385.42
2023-05-19T07:52:00.747Z,1404.44
2023-05-19T07:53:15.664Z,1463.15
2023-05-19T07:54:30.563Z,1451.96
2023-05-19T07:55:45.457Z,1450.38
2023-05-19T07:57:00.365Z,1428.57
2023-05-19T07:58:15.302Z,1479.42
2023-05-19T07:59:30.163Z,1484.38
2023-05-19T08:00:45.044Z,1514.81
2023-05-19T08:01:59.992Z,1507.94
2023-05-19T08:03:15.058Z,1513.08
2023-05-19T08:04:30.010Z,1571.18
2023-05-19T08:05:44.877Z,1618.01
2023-05-19T08:06:59.796Z,1616.04
2023-05-19T08:08:14.659Z,1630.90
2023-05-19T08:09:29.591Z,1649.10
2023-05-19T08:10:44.491Z,1705.13
2023-05-19T08:11:59.384Z,1680.35
2023-05-19T08:13:14.314Z,1658.35
2023-05-19T08:14:29.200Z,1670.85
2023-05-19T08:15:44.119Z,1687.82
2023-05-19T08:16:58.976Z,1721.68
2023-05-19T08:18:13.917Z,1715.02
2023-05-19T08:19:28.856Z,1678.23
2023-05-19T08:20:43.750Z,1612.12
2023-05-19T08:21:58.637Z,1583.33
2023-05-19T08:23:13.534Z,1566.55
2023-05-19T08:24:28.418Z,1554.65
2023-05-19T08:25:43.333Z,1526.98
2023-05-19T08:26:58.228Z,1599.52
2023-05-19T08:28:13.136Z,1671.90
2023-05-19T08:29:28.045Z,1716.13
2023-05-19T08:30:42.967Z,1697.51
2023-05-19T08:31:57.920Z,1696.43
2023-05-19T08:33:12.842Z,1754.62
2023-05-19T08:34:27.779Z,1741.98
2023-05-19T08:35:42.660Z,1719.46
2023-05-19T08:36:57.578Z,1705.13
2023-05-19T08:38:12.500Z,1644.01
2023-05-19T08:39:27.389Z,1621.95
2023-05-19T08:40:42.293Z,1589.96
2023-05-19T08:41:57.192Z,1580.51
2023-05-19T08:43:12.101Z,1600.48
2023-05-19T08:44:27.002Z,1590.91
2023-05-19T08:45:41.902Z,1667.71
2023-05-19T08:46:56.837Z,1700.77
2023-05-19T08:48:11.738Z,1732.90
2023-05-19T08:49:26.663Z,1811.99
2023-05-19T08:50:41.546Z,1769.79
2023-05-19T08:51:56.474Z,1770.97
2023-05-19T08:53:18.252Z,1784.04
2023-05-19T08:54:31.185Z,1787.63
2023-05-19T08:55:46.177Z,1756.94
2023-05-19T08:57:01.083Z,1814.46
2023-05-19T08:58:15.964Z,1866.67
2023-05-19T08:59:30.897Z,1934.55
2023-05-19T09:00:45.792Z,1980.64
2023-05-19T09:02:00.657Z,1887.86
2023-05-19T09:03:22.771Z,1910.92
2023-05-19T09:04:35.501Z,1887.86
2023-05-19T09:05:50.498Z,1900.00
2023-05-19T09:07:05.393Z,1902.72
2023-05-19T09:08:20.273Z,1934.55
2023-05-19T09:09:35.164Z,1852.37
2023-05-19T09:10:50.105Z,1826.92
2023-05-19T09:12:05.030Z,1797.30
2023-05-19T09:13:19.945Z,1853.66
2023-05-19T09:14:34.826Z,1910.92
2023-05-19T09:15:49.707Z,1915.05
2023-05-19T09:17:04.636Z,1904.08
2023-05-19T09:18:19.531Z,1886.52
2023-05-19T09:19:34.485Z,1847.22
2023-05-19T09:20:49.412Z,1867.98
2023-05-19T09:22:04.324Z,1862.74
2023-05-19T09:23:19.209Z,1776.89
2023-05-19T09:24:34.166Z,1723.91
2023-05-19T09:25:49.037Z,1664.58
2023-05-19T09:27:04.153Z,1645.02
2023-05-19T09:28:19.044Z,1592.81
2023-05-19T09:29:33.984Z,1559.20
2023-05-19T09:30:48.914Z,1511.36
2023-05-19T09:32:03.848Z,1489.36
2023-05-19T09:33:18.799Z,1489.36
2023-05-19T09:34:33.733Z,1619.97
2023-05-19T09:35:48.650Z,1804.61
2023-05-19T09:37:03.690Z,1881.19
2023-05-19T09:38:18.614Z,1980.64
2023-05-19T09:39:33.497Z,1979.17
2023-05-19T09:40:48.390Z,1938.78
2023-05-19T09:42:03.272Z,1893.24
2023-05-19T09:43:18.218Z,1854.95
2023-05-19T09:44:33.151Z,1960.21
2023-05-19T09:45:48.063Z,2145.16
2023-05-19T09:47:02.961Z,2279.35
2023-05-19T09:48:17.877Z,2240.94
2023-05-19T09:49:32.807Z,2211.14
2023-05-19T09:50:47.711Z,2271.56
2023-05-19T09:52:02.608Z,2246.62
2023-05-19T09:53:17.513Z,2203.81
2023-05-19T09:54:32.729Z,2256.15
2023-05-19T09:55:47.617Z,2283.26
2023-05-19T09:57:02.566Z,2381.38
2023-05-19T09:58:17.495Z,2360.25
2023-05-19T09:59:33.770Z,2379.25
2023-05-19T10:00:48.923Z,2385.65
2023-05-19T10:02:03.815Z,2273.50
2023-05-19T10:03:18.761Z,2185.70
2023-05-19T10:04:33.762Z,2200.17
2023-05-19T10:05:48.693Z,2242.83
2023-05-19T10:07:03.560Z,2200.17
2023-05-19T10:08:18.446Z,2164.36
2023-05-19T10:09:33.347Z,2214.82
2023-05-19T10:10:48.235Z,2283.26
2023-05-19T10:12:03.155Z,2319.09
2023-05-19T10:13:18.105Z,2353.98
2023-05-19T10:14:33.007Z,2402.89
2023-05-19T10:17:07.838Z,2612.97
2023-05-19T10:18:22.739Z,2747.93
2023-05-19T10:19:37.619Z,2802.95
2023-05-19T10:20:52.549Z,2897.60
2023-05-19T10:22:07.635Z,3038.26
2023-05-19T10:23:22.710Z,3172.33
2023-05-19T10:24:37.675Z,3159.15
2023-05-19T10:25:52.563Z,3214.50
2023-05-19T10:27:07.461Z,3237.98
2023-05-19T10:28:22.359Z,3222.29
2023-05-19T10:29:37.259Z,3149.79
2023-05-19T10:30:52.167Z,3149.79
2023-05-19T10:32:07.121Z,3125.73
2023-05-19T10:33:22.089Z,3057.47
2023-05-19T10:34:37.006Z,3089.43
2023-05-19T10:35:51.923Z,3091.23
2023-05-19T10:37:06.813Z,3094.82
2023-05-19T10:38:21.925Z,2995.50
2023-05-19T10:39:36.811Z,3041.74
2023-05-19T10:40:51.731Z,2907.10
2023-05-19T10:42:06.606Z,2913.47
2023-05-19T10:43:21.518Z,2932.75
2023-05-19T10:44:36.503Z,2958.84
2023-05-19T10:45:51.405Z,2945.74
2023-05-19T10:47:06.397Z,2935.98
2023-05-19T10:48:21.275Z,2820.78
2023-05-19T10:49:36.167Z,2907.10
2023-05-19T10:50:51.059Z,2916.67
2023-05-19T10:52:05.959Z,2847.97
2023-05-19T10:53:20.860Z,2797.05
2023-05-19T10:54:35.808Z,2714.28
2023-05-19T10:55:50.729Z,2700.51
2023-05-19T10:57:05.608Z,2657.34
2023-05-19T10:58:20.526Z,2689.58
2023-05-19T10:59:35.435Z,2750.77
2023-05-19T11:00:50.325Z,2742.27
2023-05-19T11:02:05.269Z,2673.37
2023-05-19T11:03:20.163Z,2670.68
2023-05-19T11:04:35.051Z,2717.06
2023-05-19T11:05:49.950Z,2560.15
2023-05-19T11:07:04.866Z,2507.07
2023-05-19T11:08:19.796Z,2456.14
2023-05-19T11:09:40.361Z,2453.87
2023-05-19T11:10:54.579Z,2488.31
2023-05-19T11:12:09.471Z,2497.65
2023-05-19T11:13:26.172Z,2479.03
2023-05-19T11:14:41.101Z,2389.94
2023-05-19T11:15:55.998Z,2323.14
2023-05-19T11:17:10.901Z,2239.06
2023-05-19T11:18:25.790Z,2224.08
2023-05-19T11:19:40.674Z,2212.98
2023-05-19T11:20:55.615Z,2116.15
2023-05-19T11:22:10.476Z,2148.63
2023-05-19T11:23:25.454Z,2094.49
2023-05-19T11:24:40.365Z,2066.82
2023-05-19T11:25:55.229Z,2055.64
2023-05-19T11:27:10.164Z,2012.10
2023-05-19T11:28:25.101Z,1960.21
2023-05-19T11:29:40.029Z,1898.64
2023-05-19T11:30:55.035Z,1852.37
2023-05-19T11:32:09.976Z,1753.46
2023-05-19T11:33:25.018Z,1663.54
2023-05-19T11:34:39.907Z,1607.25
2023-05-19T11:35:54.822Z,1596.64
2023-05-19T11:37:09.715Z,1617.02
2023-05-19T11:38:24.638Z,1610.17
2023-05-19T11:39:39.565Z,1537.57
2023-05-19T11:40:54.479Z,1494.38
2023-05-19T11:42:09.413Z,1476.14
2023-05-19T11:43:24.336Z,1513.08
2023-05-19T11:44:39.285Z,1487.69
2023-05-19T11:45:54.279Z,1494.38
2023-05-19T11:47:09.275Z,1524.35
2023-05-19T11:48:24.246Z,1534.03
2023-05-19T11:49:39.189Z,1518.27
2023-05-19T11:50:54.130Z,1548.31
2023-05-19T11:52:09.209Z,1582.39
2023-05-19T11:53:24.122Z,1579.57
2023-05-19T11:54:39.097Z,1616.04
2023-05-19T11:55:53.993Z,1627.91
2023-05-19T11:57:08.889Z,1661.46
2023-05-19T11:58:23.807Z,1766.27
2023-05-19T11:59:38.712Z,1838.29
2023-05-19T12:00:54.257Z,1897.29
2023-05-19T12:02:09.205Z,1955.88
2023-05-19T12:03:24.425Z,1979.17
2023-05-19T12:04:39.361Z,1906.81
2023-05-19T12:05:54.328Z,1913.67
2023-05-19T12:07:09.225Z,1870.60
2023-05-19T12:08:24.159Z,1814.46
2023-05-19T12:09:39.092Z,1818.18
2023-05-19T12:10:54.250Z,1803.39
2023-05-19T12:12:09.150Z,1693.19
2023-05-19T12:13:24.113Z,1715.02
2023-05-19T12:14:39.027Z,1811.99
2023-05-19T12:15:53.947Z,1886.52
2023-05-19T12:17:08.841Z,1909.55
2023-05-19T12:18:23.775Z,1904.08
2023-05-19T12:19:38.783Z,1825.67
2023-05-19T12:20:53.697Z,1729.52
2023-05-19T12:22:08.616Z,1734.03
2023-05-19T12:23:23.516Z,1756.94
2023-05-19T12:24:38.498Z,1736.29
2023-05-19T12:25:53.484Z,1734.03
2023-05-19T12:27:08.409Z,1715.02
2023-05-19T12:28:23.304Z,1693.19
2023-05-19T12:29:38.214Z,1565.63
2023-05-19T12:30:53.128Z,1551.02
2023-05-19T12:32:08.133Z,1605.31
2023-05-19T12:33:23.033Z,1605.31
2023-05-19T12:34:37.965Z,1516.53
2023-05-19T12:35:52.897Z,1518.27
2023-05-19T12:37:07.815Z,1604.34
2023-05-19T12:38:22.785Z,1634.91
2023-05-19T12:39:37.994Z,1609.19
2023-05-19T12:40:53.428Z,1629.90
2023-05-19T12:42:08.362Z,1577.70
2023-05-19T12:43:23.268Z,1526.98
2023-05-19T12:44:38.203Z,1511.36
2023-05-19T12:45:53.160Z,1518.27
2023-05-19T12:47:08.097Z,1526.10
2023-05-19T12:48:23.036Z,1511.36
2023-05-19T12:49:37.970Z,1509.65
2023-05-19T12:50:52.898Z,1467.99
2023-05-19T12:52:12.623Z,1507.94
2023-05-19T12:53:27.594Z,1477.78
2023-05-19T12:54:42.581Z,1373.97
2023-05-19T12:55:57.483Z,1355.76
2023-05-19T12:57:12.321Z,1369.72
2023-05-19T12:58:27.652Z,1364.10
2023-05-19T12:59:43.738Z,1361.31
2023-05-19T13:00:58.775Z,1439.39
2023-05-19T13:02:13.795Z,1471.24
2023-05-19T13:03:28.920Z,1464.76
2023-05-19T13:04:43.921Z,1474.50
2023-05-19T13:05:58.997Z,1498.59
2023-05-19T13:07:14.397Z,1517.40
2023-05-19T13:08:29.280Z,1514.81
2023-05-19T13:09:44.210Z,1466.37
2023-05-19T13:10:59.147Z,1419.42
2023-05-19T13:12:14.030Z,1427.04
2023-05-19T13:13:28.937Z,1496.06
2023-05-19T13:14:43.848Z,1523.48
2023-05-19T13:15:58.817Z,1555.56
2023-05-19T13:17:13.717Z,1507.08
2023-05-19T13:18:28.618Z,1499.44
2023-05-19T13:19:43.515Z,1486.03
2023-05-19T13:20:58.441Z,1509.65
2023-05-19T13:22:13.392Z,1533.14
2023-05-19T13:23:28.285Z,1544.71
2023-05-19T13:24:43.177Z,1542.92
2023-05-19T13:25:58.094Z,1506.23
2023-05-19T13:27:13.005Z,1520.87
2023-05-19T13:28:27.910Z,1535.80
2023-05-19T13:29:42.829Z,1540.24
2023-05-19T13:30:57.766Z,1487.69
2023-05-19T13:32:12.643Z,1507.94
2023-05-19T13:33:27.528Z,1528.73
2023-05-19T13:34:42.417Z,1537.57
2023-05-19T13:35:57.364Z,1550.12
2023-05-19T13:37:12.336Z,1528.73
2023-05-19T13:38:27.234Z,1502.82
2023-05-19T13:39:42.121Z,1535.80
2023-05-19T13:40:57.043Z,1511.36
2023-05-19T13:42:12.924Z,1486.03
2023-05-19T13:43:27.861Z,1444.08
2023-05-19T13:44:42.759Z,1394.13
2023-05-19T13:45:57.680Z,1466.37
2023-05-19T13:47:12.659Z,1489.36
2023-05-19T13:48:27.598Z,1506.23
2023-05-19T13:49:43.284Z,1477.78
2023-05-19T13:50:58.188Z,1455.14
2023-05-19T13:52:13.097Z,1427.04
2023-05-19T13:53:27.975Z,1416.40
2023-05-19T13:54:42.896Z,1411.89
2023-05-19T13:55:57.797Z,1351.63
2023-05-19T13:57:12.701Z,1316.83
2023-05-19T13:58:27.608Z,1336.68
2023-05-19T13:59:53.436Z,1342.08
2023-05-19T14:01:02.323Z,1366.91
2023-05-19T14:02:17.249Z,1369.72
2023-05-19T14:03:32.143Z,1411.89
2023-05-19T14:04:47.050Z,1379.67
2023-05-19T14:06:02.000Z,1386.86
2023-05-19T14:07:16.884Z,1383.97
2023-05-19T14:08:31.793Z,1385.42
2023-05-19T14:09:46.732Z,1397.06
2023-05-19T14:11:01.660Z,1361.31
2023-05-19T14:12:16.548Z,1419.42
2023-05-19T14:13:34.415Z,1516.53
2023-05-19T14:14:51.271Z,1557.38
2023-05-19T14:16:06.252Z,1589.96
2023-05-19T14:17:21.203Z,1600.48
2023-05-19T14:18:36.045Z,1586.17
2023-05-19T14:19:50.947Z,1597.60
2023-05-19T14:21:05.856Z,1563.79
2023-05-19T14:22:20.749Z,1539.35
2023-05-19T14:23:35.632Z,1534.91
2023-05-19T14:24:50.531Z,1496.06
2023-05-19T14:26:05.473Z,1474.50
2023-05-19T14:27:20.391Z,1476.14
2023-05-19T14:28:35.308Z,1425.51
2023-05-19T14:29:50.209Z,1440.95
2023-05-19T14:31:05.413Z,1455.14
2023-05-19T14:32:20.538Z,1459.93
2023-05-19T14:33:35.841Z,1428.57
2023-05-19T14:34:51.778Z,1407.41
2023-05-19T14:36:06.668Z,1420.94
2023-05-19T14:37:21.576Z,1425.51
2023-05-19T14:38:36.505Z,1398.53
2023-05-19T14:39:51.394Z,1398.53
2023-05-19T14:41:06.282Z,1408.90
2023-05-19T14:42:21.199Z,1425.51
2023-05-19T14:43:36.128Z,1450.38
2023-05-19T14:44:51.030Z,1481.07
2023-05-19T14:46:05.929Z,1487.69
2023-05-19T14:47:20.830Z,1506.23
2023-05-19T14:48:35.735Z,1484.38
2023-05-19T14:49:50.642Z,1428.57
2023-05-19T14:51:05.529Z,1428.57
2023-05-19T14:52:20.503Z,1407.41
2023-05-19T14:53:35.413Z,1371.13
2023-05-19T14:54:50.289Z,1376.81
2023-05-19T14:56:06.425Z,1391.21
2023-05-19T14:57:21.442Z,1428.57
2023-05-19T14:58:36.570Z,1395.59
2023-05-19T14:59:51.553Z,1416.40
2023-05-19T15:01:06.562Z,1398.53
2023-05-19T15:02:21.467Z,1428.57
2023-05-19T15:03:36.409Z,1394.13
2023-05-19T15:04:51.319Z,1386.86
2023-05-19T15:06:06.271Z,1388.31
2023-05-19T15:07:21.173Z,1428.57
2023-05-19T15:08:36.072Z,1482.72
2023-05-19T15:09:51.014Z,1519.13
2023-05-19T15:11:05.920Z,1526.98
2023-05-19T15:12:20.840Z,1538.46
2023-05-19T15:13:35.756Z,1500.28
2023-05-19T15:14:51.053Z,1504.53
2023-05-19T15:16:17.078Z,1507.94
2023-05-19T15:17:25.797Z,1477.78
2023-05-19T15:18:41.391Z,1463.15
2023-05-19T15:19:56.363Z,1504.53
2023-05-19T15:21:11.218Z,1472.87
2023-05-19T15:22:26.131Z,1428.57